sensor_id;sensor_type;location;lat;lon;timestamp;pressure;altitude;pressure_sealevel;temperature;humidity
47592;BME280;33317;33.356;-117.184;2024-03-29T00:00:43;99205.98;;;30.18;25.99
47592;BME280;33317;33.356;-117.184;2024-03-29T00:03:11;99202.94;;;30.13;26.27
47592;BME280;33317;33.356;-117.184;2024-03-29T00:05:39;99202.66;;;30.06;26.20
47592;BME280;33317;33.356;-117.184;2024-03-29T00:08:08;99199.41;;;30.02;26.33
47592;BME280;33317;33.356;-117.184;2024-03-29T00:10:36;99199.12;;;29.96;26.64
47592;BME280;33317;33.356;-117.184;2024-03-29T00:13:05;99200.13;;;29.93;26.42
47592;BME280;33317;33.356;-117.184;2024-03-29T00:15:33;99200.72;;;29.87;26.82
47592;BME280;33317;33.356;-117.184;2024-03-29T00:18:02;99200.68;;;29.88;26.69
47592;BME280;33317;33.356;-117.184;2024-03-29T00:20:30;99201.56;;;29.85;26.43
47592;BME280;33317;33.356;-117.184;2024-03-29T00:22:58;99202.60;;;30.30;26.76
47592;BME280;33317;33.356;-117.184;2024-03-29T00:25:27;99202.21;;;29.77;26.40
47592;BME280;33317;33.356;-117.184;2024-03-29T00:27:55;99203.46;;;29.97;26.92
47592;BME280;33317;33.356;-117.184;2024-03-29T00:30:23;99203.08;;;29.91;26.79
47592;BME280;33317;33.356;-117.184;2024-03-29T00:32:52;99202.73;;;29.87;26.81
47592;BME280;33317;33.356;-117.184;2024-03-29T00:35:20;99203.15;;;29.87;26.59
47592;BME280;33317;33.356;-117.184;2024-03-29T00:37:49;99204.98;;;30.14;27.22
47592;BME280;33317;33.356;-117.184;2024-03-29T00:40:18;99201.86;;;29.73;27.15
47592;BME280;33317;33.356;-117.184;2024-03-29T00:42:46;99202.37;;;30.21;27.33
47592;BME280;33317;33.356;-117.184;2024-03-29T00:45:15;99206.02;;;29.76;27.34
47592;BME280;33317;33.356;-117.184;2024-03-29T00:47:43;99208.66;;;29.85;27.43
47592;BME280;33317;33.356;-117.184;2024-03-29T00:50:13;99210.03;;;29.89;27.41
47592;BME280;33317;33.356;-117.184;2024-03-29T00:52:41;99211.41;;;29.99;27.31
47592;BME280;33317;33.356;-117.184;2024-03-29T00:55:09;99211.60;;;30.12;27.05
47592;BME280;33317;33.356;-117.184;2024-03-29T00:57:37;99209.16;;;29.63;27.33
47592;BME280;33317;33.356;-117.184;2024-03-29T01:00:07;99216.25;;;29.49;27.52
47592;BME280;33317;33.356;-117.184;2024-03-29T01:02:35;99216.00;;;29.36;27.70
47592;BME280;33317;33.356;-117.184;2024-03-29T01:05:04;99214.34;;;29.47;27.69
47592;BME280;33317;33.356;-117.184;2024-03-29T01:07:32;99218.10;;;29.12;27.90
47592;BME280;33317;33.356;-117.184;2024-03-29T01:10:01;99219.29;;;29.42;28.00
47592;BME280;33317;33.356;-117.184;2024-03-29T01:12:29;99223.07;;;29.05;28.16
47592;BME280;33317;33.356;-117.184;2024-03-29T01:14:58;99222.95;;;28.98;28.50
47592;BME280;33317;33.356;-117.184;2024-03-29T01:17:27;99224.45;;;28.95;28.73
47592;BME280;33317;33.356;-117.184;2024-03-29T01:19:55;99231.86;;;29.09;28.71
47592;BME280;33317;33.356;-117.184;2024-03-29T01:22:25;99233.20;;;28.81;28.74
47592;BME280;33317;33.356;-117.184;2024-03-29T01:24:54;99230.36;;;28.78;28.59
47592;BME280;33317;33.356;-117.184;2024-03-29T01:27:22;99231.54;;;28.63;28.65
47592;BME280;33317;33.356;-117.184;2024-03-29T01:29:50;99235.75;;;28.51;28.77
47592;BME280;33317;33.356;-117.184;2024-03-29T01:32:19;99239.23;;;28.35;28.68
47592;BME280;33317;33.356;-117.184;2024-03-29T01:34:47;99237.47;;;28.37;28.93
47592;BME280;33317;33.356;-117.184;2024-03-29T01:37:15;99241.07;;;28.19;29.16
47592;BME280;33317;33.356;-117.184;2024-03-29T01:39:43;99241.15;;;28.16;29.10
47592;BME280;33317;33.356;-117.184;2024-03-29T01:42:12;99236.35;;;28.25;29.46
47592;BME280;33317;33.356;-117.184;2024-03-29T01:44:40;99233.25;;;28.14;29.35
47592;BME280;33317;33.356;-117.184;2024-03-29T01:47:09;99231.72;;;28.13;29.35
47592;BME280;33317;33.356;-117.184;2024-03-29T01:49:37;99231.65;;;27.98;29.47
47592;BME280;33317;33.356;-117.184;2024-03-29T01:52:06;99226.61;;;27.83;29.60
47592;BME280;33317;33.356;-117.184;2024-03-29T01:54:35;99228.54;;;27.65;29.72
47592;BME280;33317;33.356;-117.184;2024-03-29T01:57:05;99223.14;;;27.52;29.96
47592;BME280;33317;33.356;-117.184;2024-03-29T01:59:33;99221.04;;;27.69;29.93
47592;BME280;33317;33.356;-117.184;2024-03-29T02:02:02;99215.06;;;27.55;30.11
47592;BME280;33317;33.356;-117.184;2024-03-29T02:04:31;99218.62;;;27.50;30.45
47592;BME280;33317;33.356;-117.184;2024-03-29T02:07:00;99223.47;;;27.32;30.45
47592;BME280;33317;33.356;-117.184;2024-03-29T02:09:28;99228.92;;;26.93;30.65
47592;BME280;33317;33.356;-117.184;2024-03-29T02:11:57;99228.97;;;27.13;30.67
47592;BME280;33317;33.356;-117.184;2024-03-29T02:14:25;99228.66;;;26.75;30.66
47592;BME280;33317;33.356;-117.184;2024-03-29T02:16:53;99228.52;;;26.76;31.15
47592;BME280;33317;33.356;-117.184;2024-03-29T02:19:22;99231.97;;;27.10;30.90
47592;BME280;33317;33.356;-117.184;2024-03-29T02:21:52;99231.98;;;27.00;31.08
47592;BME280;33317;33.356;-117.184;2024-03-29T02:24:22;99232.42;;;26.70;31.06
47592;BME280;33317;33.356;-117.184;2024-03-29T02:26:50;99232.76;;;26.78;31.12
47592;BME280;33317;33.356;-117.184;2024-03-29T02:29:19;99237.19;;;26.52;31.64
47592;BME280;33317;33.356;-117.184;2024-03-29T02:31:47;99243.20;;;26.70;31.23
47592;BME280;33317;33.356;-117.184;2024-03-29T02:34:15;99246.61;;;26.35;31.84
47592;BME280;33317;33.356;-117.184;2024-03-29T02:36:44;99245.42;;;26.18;31.99
47592;BME280;33317;33.356;-117.184;2024-03-29T02:39:12;99248.76;;;26.42;31.52
47592;BME280;33317;33.356;-117.184;2024-03-29T02:41:41;99251.85;;;26.30;31.60
47592;BME280;33317;33.356;-117.184;2024-03-29T02:44:10;99256.87;;;25.91;32.26
47592;BME280;33317;33.356;-117.184;2024-03-29T02:46:38;99258.64;;;26.42;31.93
47592;BME280;33317;33.356;-117.184;2024-03-29T02:49:06;99263.57;;;26.17;32.33
47592;BME280;33317;33.356;-117.184;2024-03-29T02:51:35;99263.86;;;25.17;33.33
47592;BME280;33317;33.356;-117.184;2024-03-29T02:54:04;99267.80;;;25.70;32.96
47592;BME280;33317;33.356;-117.184;2024-03-29T02:56:33;99269.38;;;25.42;33.07
47592;BME280;33317;33.356;-117.184;2024-03-29T02:59:01;99268.26;;;26.08;32.48
47592;BME280;33317;33.356;-117.184;2024-03-29T03:01:29;99263.02;;;25.35;32.85
47592;BME280;33317;33.356;-117.184;2024-03-29T03:03:58;99265.74;;;25.14;32.92
47592;BME280;33317;33.356;-117.184;2024-03-29T03:06:26;99268.98;;;24.94;33.93
47592;BME280;33317;33.356;-117.184;2024-03-29T03:08:55;99274.35;;;25.03;33.77
47592;BME280;33317;33.356;-117.184;2024-03-29T03:11:24;99275.00;;;25.08;33.96
47592;BME280;33317;33.356;-117.184;2024-03-29T03:13:52;99276.61;;;24.93;34.35
47592;BME280;33317;33.356;-117.184;2024-03-29T03:16:21;99273.05;;;24.48;34.57
47592;BME280;33317;33.356;-117.184;2024-03-29T03:18:51;99269.91;;;24.61;34.71
47592;BME280;33317;33.356;-117.184;2024-03-29T03:21:19;99272.33;;;24.29;35.16
47592;BME280;33317;33.356;-117.184;2024-03-29T03:23:47;99278.80;;;24.09;35.42
47592;BME280;33317;33.356;-117.184;2024-03-29T03:26:16;99274.67;;;24.36;34.93
47592;BME280;33317;33.356;-117.184;2024-03-29T03:28:44;99270.88;;;24.67;34.60
47592;BME280;33317;33.356;-117.184;2024-03-29T03:31:13;99273.06;;;24.31;35.02
47592;BME280;33317;33.356;-117.184;2024-03-29T03:33:41;99273.31;;;24.00;35.28
47592;BME280;33317;33.356;-117.184;2024-03-29T03:36:09;99276.87;;;24.09;35.19
47592;BME280;33317;33.356;-117.184;2024-03-29T03:38:37;99276.26;;;24.14;35.20
47592;BME280;33317;33.356;-117.184;2024-03-29T03:41:06;99283.02;;;24.04;35.34
47592;BME280;33317;33.356;-117.184;2024-03-29T03:43:34;99283.93;;;24.19;34.85
47592;BME280;33317;33.356;-117.184;2024-03-29T03:46:03;99279.27;;;24.28;34.94
47592;BME280;33317;33.356;-117.184;2024-03-29T03:48:31;99280.05;;;24.50;34.49
47592;BME280;33317;33.356;-117.184;2024-03-29T03:51:00;99278.04;;;24.27;34.88
47592;BME280;33317;33.356;-117.184;2024-03-29T03:53:29;99276.38;;;24.61;34.72
47592;BME280;33317;33.356;-117.184;2024-03-29T03:55:59;99274.55;;;24.31;35.25
47592;BME280;33317;33.356;-117.184;2024-03-29T03:58:27;99272.65;;;23.93;35.37
47592;BME280;33317;33.356;-117.184;2024-03-29T04:00:56;99271.51;;;24.09;35.16
47592;BME280;33317;33.356;-117.184;2024-03-29T04:03:24;99271.40;;;24.00;35.31
47592;BME280;33317;33.356;-117.184;2024-03-29T04:05:52;99273.40;;;24.17;35.12
47592;BME280;33317;33.356;-117.184;2024-03-29T04:08:21;99276.46;;;24.54;34.92
47592;BME280;33317;33.356;-117.184;2024-03-29T04:10:49;99280.23;;;24.30;34.93
47592;BME280;33317;33.356;-117.184;2024-03-29T04:13:19;99280.84;;;24.48;34.97
47592;BME280;33317;33.356;-117.184;2024-03-29T04:15:47;99290.74;;;24.15;35.07
47592;BME280;33317;33.356;-117.184;2024-03-29T04:18:16;99300.47;;;24.37;34.76
47592;BME280;33317;33.356;-117.184;2024-03-29T04:20:44;99301.15;;;24.32;34.81
47592;BME280;33317;33.356;-117.184;2024-03-29T04:23:13;99307.05;;;24.54;34.49
47592;BME280;33317;33.356;-117.184;2024-03-29T04:25:41;99311.61;;;24.59;34.84
47592;BME280;33317;33.356;-117.184;2024-03-29T04:28:18;99311.37;;;24.61;34.42
47592;BME280;33317;33.356;-117.184;2024-03-29T04:30:52;99309.29;;;24.87;33.91
47592;BME280;33317;33.356;-117.184;2024-03-29T04:33:21;99309.00;;;25.04;33.71
47592;BME280;33317;33.356;-117.184;2024-03-29T04:35:58;99309.36;;;24.91;33.97
47592;BME280;33317;33.356;-117.184;2024-03-29T04:38:27;99307.93;;;24.99;33.54
47592;BME280;33317;33.356;-117.184;2024-03-29T04:40:57;99307.59;;;24.81;33.66
47592;BME280;33317;33.356;-117.184;2024-03-29T04:43:27;99306.11;;;25.33;33.29
47592;BME280;33317;33.356;-117.184;2024-03-29T04:46:09;99315.37;;;25.24;33.36
47592;BME280;33317;33.356;-117.184;2024-03-29T04:48:38;99319.28;;;25.35;33.20
47592;BME280;33317;33.356;-117.184;2024-03-29T04:51:08;99323.65;;;24.83;33.22
47592;BME280;33317;33.356;-117.184;2024-03-29T04:53:37;99318.52;;;25.00;33.71
47592;BME280;33317;33.356;-117.184;2024-03-29T04:56:07;99310.03;;;25.44;33.02
47592;BME280;33317;33.356;-117.184;2024-03-29T04:58:37;99300.78;;;25.35;33.28
47592;BME280;33317;33.356;-117.184;2024-03-29T05:01:05;99298.05;;;25.23;33.29
47592;BME280;33317;33.356;-117.184;2024-03-29T05:03:33;99296.48;;;25.41;33.05
47592;BME280;33317;33.356;-117.184;2024-03-29T05:06:02;99298.09;;;25.42;33.11
47592;BME280;33317;33.356;-117.184;2024-03-29T05:08:30;99302.93;;;25.20;33.25
47592;BME280;33317;33.356;-117.184;2024-03-29T05:10:58;99301.24;;;25.50;32.76
47592;BME280;33317;33.356;-117.184;2024-03-29T05:13:27;99302.03;;;25.06;33.49
47592;BME280;33317;33.356;-117.184;2024-03-29T05:15:55;99304.50;;;25.17;33.28
47592;BME280;33317;33.356;-117.184;2024-03-29T05:18:24;99307.92;;;25.09;32.96
47592;BME280;33317;33.356;-117.184;2024-03-29T05:20:52;99306.33;;;25.26;32.96
47592;BME280;33317;33.356;-117.184;2024-03-29T05:23:20;99309.66;;;25.30;32.98
47592;BME280;33317;33.356;-117.184;2024-03-29T05:25:49;99309.40;;;25.23;33.01
47592;BME280;33317;33.356;-117.184;2024-03-29T05:28:17;99311.78;;;25.27;33.06
47592;BME280;33317;33.356;-117.184;2024-03-29T05:30:46;99316.41;;;25.39;32.82
47592;BME280;33317;33.356;-117.184;2024-03-29T05:33:14;99320.10;;;25.04;33.30
47592;BME280;33317;33.356;-117.184;2024-03-29T05:35:42;99323.79;;;25.08;33.13
47592;BME280;33317;33.356;-117.184;2024-03-29T05:38:11;99324.02;;;25.14;33.11
47592;BME280;33317;33.356;-117.184;2024-03-29T05:40:39;99322.66;;;25.29;32.58
47592;BME280;33317;33.356;-117.184;2024-03-29T05:43:08;99322.08;;;25.33;32.79
47592;BME280;33317;33.356;-117.184;2024-03-29T05:45:36;99323.37;;;25.62;32.26
47592;BME280;33317;33.356;-117.184;2024-03-29T05:48:05;99322.29;;;25.20;32.84
47592;BME280;33317;33.356;-117.184;2024-03-29T05:50:34;99323.32;;;25.52;32.44
47592;BME280;33317;33.356;-117.184;2024-03-29T05:53:02;99321.55;;;25.36;32.73
47592;BME280;33317;33.356;-117.184;2024-03-29T05:55:30;99319.29;;;25.46;32.65
47592;BME280;33317;33.356;-117.184;2024-03-29T05:57:59;99320.98;;;25.55;32.49
47592;BME280;33317;33.356;-117.184;2024-03-29T06:00:27;99322.62;;;25.24;32.90
47592;BME280;33317;33.356;-117.184;2024-03-29T06:02:55;99318.65;;;25.02;32.95
47592;BME280;33317;33.356;-117.184;2024-03-29T06:05:24;99311.38;;;25.16;32.79
47592;BME280;33317;33.356;-117.184;2024-03-29T06:07:52;99307.88;;;25.39;32.48
47592;BME280;33317;33.356;-117.184;2024-03-29T06:10:21;99306.82;;;25.15;32.67
47592;BME280;33317;33.356;-117.184;2024-03-29T06:12:49;99302.75;;;25.07;32.71
47592;BME280;33317;33.356;-117.184;2024-03-29T06:15:17;99295.32;;;25.06;32.77
47592;BME280;33317;33.356;-117.184;2024-03-29T06:17:45;99287.71;;;25.10;32.66
47592;BME280;33317;33.356;-117.184;2024-03-29T06:20:14;99284.19;;;24.99;32.90
47592;BME280;33317;33.356;-117.184;2024-03-29T06:22:42;99286.63;;;24.87;33.07
47592;BME280;33317;33.356;-117.184;2024-03-29T06:25:11;99281.76;;;25.10;32.61
47592;BME280;33317;33.356;-117.184;2024-03-29T06:27:39;99285.80;;;25.17;32.43
47592;BME280;33317;33.356;-117.184;2024-03-29T06:30:08;99284.60;;;25.10;32.52
47592;BME280;33317;33.356;-117.184;2024-03-29T06:32:36;99278.58;;;25.03;32.64
47592;BME280;33317;33.356;-117.184;2024-03-29T06:35:05;99274.61;;;24.80;32.96
47592;BME280;33317;33.356;-117.184;2024-03-29T06:37:33;99273.81;;;24.57;33.26
47592;BME280;33317;33.356;-117.184;2024-03-29T06:40:01;99273.55;;;24.68;32.93
47592;BME280;33317;33.356;-117.184;2024-03-29T06:42:29;99270.16;;;24.78;32.90
47592;BME280;33317;33.356;-117.184;2024-03-29T06:44:58;99272.29;;;24.21;33.61
47592;BME280;33317;33.356;-117.184;2024-03-29T06:47:28;99272.31;;;24.02;33.76
47592;BME280;33317;33.356;-117.184;2024-03-29T06:49:56;99277.62;;;24.35;33.80
47592;BME280;33317;33.356;-117.184;2024-03-29T06:52:25;99281.48;;;24.67;33.30
47592;BME280;33317;33.356;-117.184;2024-03-29T06:54:53;99279.93;;;24.57;33.30
47592;BME280;33317;33.356;-117.184;2024-03-29T06:57:21;99281.73;;;24.96;33.13
47592;BME280;33317;33.356;-117.184;2024-03-29T06:59:50;99277.93;;;23.85;34.08
47592;BME280;33317;33.356;-117.184;2024-03-29T07:02:18;99273.24;;;23.86;33.87
47592;BME280;33317;33.356;-117.184;2024-03-29T07:04:47;99268.99;;;24.22;33.82
47592;BME280;33317;33.356;-117.184;2024-03-29T07:07:15;99265.11;;;23.83;34.03
47592;BME280;33317;33.356;-117.184;2024-03-29T07:09:43;99263.29;;;23.58;34.25
47592;BME280;33317;33.356;-117.184;2024-03-29T07:12:12;99264.69;;;23.80;34.46
47592;BME280;33317;33.356;-117.184;2024-03-29T07:14:40;99263.86;;;23.86;34.59
47592;BME280;33317;33.356;-117.184;2024-03-29T07:17:09;99264.43;;;23.85;34.53
47592;BME280;33317;33.356;-117.184;2024-03-29T07:19:37;99265.87;;;23.71;34.69
47592;BME280;33317;33.356;-117.184;2024-03-29T07:22:05;99262.56;;;23.23;35.07
47592;BME280;33317;33.356;-117.184;2024-03-29T07:24:34;99264.85;;;23.82;34.35
47592;BME280;33317;33.356;-117.184;2024-03-29T07:27:02;99266.15;;;22.99;34.82
47592;BME280;33317;33.356;-117.184;2024-03-29T07:29:31;99265.31;;;23.24;35.15
47592;BME280;33317;33.356;-117.184;2024-03-29T07:31:59;99263.28;;;23.42;34.89
47592;BME280;33317;33.356;-117.184;2024-03-29T07:34:27;99264.77;;;23.11;35.37
47592;BME280;33317;33.356;-117.184;2024-03-29T07:36:56;99260.67;;;23.06;35.11
47592;BME280;33317;33.356;-117.184;2024-03-29T07:39:24;99256.16;;;23.12;35.26
47592;BME280;33317;33.356;-117.184;2024-03-29T07:41:52;99253.53;;;22.78;35.79
47592;BME280;33317;33.356;-117.184;2024-03-29T07:44:21;99251.49;;;22.63;35.99
47592;BME280;33317;33.356;-117.184;2024-03-29T07:46:49;99261.09;;;22.72;36.13
47592;BME280;33317;33.356;-117.184;2024-03-29T07:49:18;99262.42;;;22.11;36.78
47592;BME280;33317;33.356;-117.184;2024-03-29T07:51:46;99262.74;;;22.18;36.68
47592;BME280;33317;33.356;-117.184;2024-03-29T07:54:14;99263.02;;;22.53;36.42
47592;BME280;33317;33.356;-117.184;2024-03-29T07:56:43;99257.67;;;22.45;36.50
47592;BME280;33317;33.356;-117.184;2024-03-29T07:59:11;99254.09;;;22.56;36.24
47592;BME280;33317;33.356;-117.184;2024-03-29T08:01:40;99251.14;;;21.82;37.08
47592;BME280;33317;33.356;-117.184;2024-03-29T08:04:08;99246.51;;;21.88;37.13
47592;BME280;33317;33.356;-117.184;2024-03-29T08:06:36;99239.06;;;22.19;36.60
47592;BME280;33317;33.356;-117.184;2024-03-29T08:09:05;99236.01;;;22.38;36.62
47592;BME280;33317;33.356;-117.184;2024-03-29T08:11:33;99232.75;;;22.13;36.85
47592;BME280;33317;33.356;-117.184;2024-03-29T08:14:02;99233.47;;;22.54;36.63
47592;BME280;33317;33.356;-117.184;2024-03-29T08:16:30;99227.59;;;22.77;36.25
47592;BME280;33317;33.356;-117.184;2024-03-29T08:18:58;99223.45;;;22.57;36.45
47592;BME280;33317;33.356;-117.184;2024-03-29T08:21:27;99218.98;;;22.08;36.34
47592;BME280;33317;33.356;-117.184;2024-03-29T08:23:55;99213.16;;;21.91;36.56
47592;BME280;33317;33.356;-117.184;2024-03-29T08:26:24;99209.17;;;22.13;37.00
47592;BME280;33317;33.356;-117.184;2024-03-29T08:28:52;99205.71;;;21.80;37.10
47592;BME280;33317;33.356;-117.184;2024-03-29T08:31:20;99202.66;;;21.86;36.92
47592;BME280;33317;33.356;-117.184;2024-03-29T08:33:49;99199.40;;;21.88;36.81
47592;BME280;33317;33.356;-117.184;2024-03-29T08:36:17;99193.23;;;21.75;37.03
47592;BME280;33317;33.356;-117.184;2024-03-29T08:38:45;99185.95;;;22.18;36.75
47592;BME280;33317;33.356;-117.184;2024-03-29T08:41:14;99184.18;;;22.26;36.47
47592;BME280;33317;33.356;-117.184;2024-03-29T08:43:42;99184.49;;;21.96;36.79
47592;BME280;33317;33.356;-117.184;2024-03-29T08:46:11;99189.31;;;22.12;36.58
47592;BME280;33317;33.356;-117.184;2024-03-29T08:48:40;99190.13;;;21.61;37.12
47592;BME280;33317;33.356;-117.184;2024-03-29T08:51:08;99195.89;;;21.62;37.03
47592;BME280;33317;33.356;-117.184;2024-03-29T08:53:36;99199.65;;;21.89;36.44
47592;BME280;33317;33.356;-117.184;2024-03-29T08:56:05;99206.47;;;21.65;37.16
47592;BME280;33317;33.356;-117.184;2024-03-29T08:58:33;99204.18;;;21.64;37.28
47592;BME280;33317;33.356;-117.184;2024-03-29T09:01:03;99197.86;;;21.27;37.39
47592;BME280;33317;33.356;-117.184;2024-03-29T09:03:32;99194.86;;;21.44;37.37
47592;BME280;33317;33.356;-117.184;2024-03-29T09:06:00;99192.14;;;21.48;37.33
47592;BME280;33317;33.356;-117.184;2024-03-29T09:08:29;99189.78;;;21.61;37.11
47592;BME280;33317;33.356;-117.184;2024-03-29T09:10:57;99188.05;;;21.60;37.12
47592;BME280;33317;33.356;-117.184;2024-03-29T09:13:25;99186.82;;;21.66;37.02
47592;BME280;33317;33.356;-117.184;2024-03-29T09:15:54;99189.00;;;21.61;36.93
47592;BME280;33317;33.356;-117.184;2024-03-29T09:18:22;99186.16;;;21.88;36.34
47592;BME280;33317;33.356;-117.184;2024-03-29T09:20:58;99182.50;;;21.70;36.89
47592;BME280;33317;33.356;-117.184;2024-03-29T09:23:28;99175.35;;;21.61;36.99
47592;BME280;33317;33.356;-117.184;2024-03-29T09:25:56;99170.63;;;21.66;36.48
47592;BME280;33317;33.356;-117.184;2024-03-29T09:28:25;99174.86;;;21.69;36.80
47592;BME280;33317;33.356;-117.184;2024-03-29T09:30:58;99171.69;;;21.36;37.25
47592;BME280;33317;33.356;-117.184;2024-03-29T09:33:27;99164.67;;;21.31;37.28
47592;BME280;33317;33.356;-117.184;2024-03-29T09:35:55;99161.24;;;21.11;37.58
47592;BME280;33317;33.356;-117.184;2024-03-29T09:38:24;99161.74;;;21.57;37.25
47592;BME280;33317;33.356;-117.184;2024-03-29T09:41:00;99164.80;;;21.45;36.96
47592;BME280;33317;33.356;-117.184;2024-03-29T09:43:31;99162.68;;;21.11;37.51
47592;BME280;33317;33.356;-117.184;2024-03-29T09:46:00;99160.47;;;20.97;37.72
47592;BME280;33317;33.356;-117.184;2024-03-29T09:48:28;99153.68;;;21.61;36.71
47592;BME280;33317;33.356;-117.184;2024-03-29T09:50:58;99154.89;;;21.67;36.41
47592;BME280;33317;33.356;-117.184;2024-03-29T09:53:27;99152.92;;;21.49;36.62
47592;BME280;33317;33.356;-117.184;2024-03-29T09:55:55;99147.51;;;21.57;36.94
47592;BME280;33317;33.356;-117.184;2024-03-29T09:58:23;99147.03;;;21.31;36.90
47592;BME280;33317;33.356;-117.184;2024-03-29T10:00:52;99149.20;;;21.45;37.04
47592;BME280;33317;33.356;-117.184;2024-03-29T10:03:20;99149.70;;;21.43;36.65
47592;BME280;33317;33.356;-117.184;2024-03-29T10:05:49;99149.47;;;21.33;36.70
47592;BME280;33317;33.356;-117.184;2024-03-29T10:08:18;99139.53;;;21.22;36.48
47592;BME280;33317;33.356;-117.184;2024-03-29T10:10:47;99133.18;;;21.21;36.98
47592;BME280;33317;33.356;-117.184;2024-03-29T10:13:15;99130.23;;;20.88;37.38
47592;BME280;33317;33.356;-117.184;2024-03-29T10:15:43;99129.40;;;20.85;37.50
47592;BME280;33317;33.356;-117.184;2024-03-29T10:18:11;99129.95;;;20.88;37.45
47592;BME280;33317;33.356;-117.184;2024-03-29T10:20:40;99128.30;;;20.69;37.72
47592;BME280;33317;33.356;-117.184;2024-03-29T10:23:08;99128.62;;;21.00;37.84
47592;BME280;33317;33.356;-117.184;2024-03-29T10:25:37;99130.41;;;20.58;37.77
47592;BME280;33317;33.356;-117.184;2024-03-29T10:28:05;99128.05;;;20.71;38.28
47592;BME280;33317;33.356;-117.184;2024-03-29T10:30:34;99120.02;;;20.18;38.36
47592;BME280;33317;33.356;-117.184;2024-03-29T10:33:02;99120.91;;;20.44;38.28
47592;BME280;33317;33.356;-117.184;2024-03-29T10:35:30;99128.23;;;20.56;37.65
47592;BME280;33317;33.356;-117.184;2024-03-29T10:38:02;99126.10;;;20.69;37.83
47592;BME280;33317;33.356;-117.184;2024-03-29T10:40:30;99131.72;;;21.19;37.30
47592;BME280;33317;33.356;-117.184;2024-03-29T10:42:59;99128.93;;;20.94;37.35
47592;BME280;33317;33.356;-117.184;2024-03-29T10:45:28;99124.80;;;21.05;37.04
47592;BME280;33317;33.356;-117.184;2024-03-29T10:47:57;99127.02;;;21.13;37.14
47592;BME280;33317;33.356;-117.184;2024-03-29T10:50:27;99123.22;;;21.02;37.03
47592;BME280;33317;33.356;-117.184;2024-03-29T10:52:58;99123.10;;;21.27;36.98
47592;BME280;33317;33.356;-117.184;2024-03-29T10:55:29;99130.47;;;20.71;37.11
47592;BME280;33317;33.356;-117.184;2024-03-29T10:57:58;99124.89;;;20.86;37.15
47592;BME280;33317;33.356;-117.184;2024-03-29T11:00:29;99117.24;;;20.43;37.64
47592;BME280;33317;33.356;-117.184;2024-03-29T11:03:09;99108.41;;;20.76;37.74
47592;BME280;33317;33.356;-117.184;2024-03-29T11:05:43;99104.40;;;20.39;38.22
47592;BME280;33317;33.356;-117.184;2024-03-29T11:08:16;99102.20;;;20.39;38.30
47592;BME280;33317;33.356;-117.184;2024-03-29T11:10:47;99096.84;;;20.05;38.40
47592;BME280;33317;33.356;-117.184;2024-03-29T11:13:22;99102.85;;;20.12;38.17
47592;BME280;33317;33.356;-117.184;2024-03-29T11:15:54;99104.82;;;20.69;37.82
47592;BME280;33317;33.356;-117.184;2024-03-29T11:18:23;99113.10;;;20.40;37.84
47592;BME280;33317;33.356;-117.184;2024-03-29T11:20:52;99116.99;;;20.43;38.16
47592;BME280;33317;33.356;-117.184;2024-03-29T11:23:22;99108.98;;;20.37;37.82
47592;BME280;33317;33.356;-117.184;2024-03-29T11:25:52;99110.30;;;20.71;37.67
47592;BME280;33317;33.356;-117.184;2024-03-29T11:28:26;99119.16;;;20.42;37.68
47592;BME280;33317;33.356;-117.184;2024-03-29T11:30:58;99122.53;;;20.38;37.32
47592;BME280;33317;33.356;-117.184;2024-03-29T11:33:30;99130.32;;;20.42;37.34
47592;BME280;33317;33.356;-117.184;2024-03-29T11:36:10;99145.83;;;20.96;36.57
47592;BME280;33317;33.356;-117.184;2024-03-29T11:38:39;99150.33;;;21.67;36.19
47592;BME280;33317;33.356;-117.184;2024-03-29T11:41:10;99153.56;;;21.87;35.50
47592;BME280;33317;33.356;-117.184;2024-03-29T11:43:39;99156.42;;;21.42;35.70
47592;BME280;33317;33.356;-117.184;2024-03-29T11:46:09;99158.89;;;21.95;35.27
47592;BME280;33317;33.356;-117.184;2024-03-29T11:48:37;99156.10;;;21.57;35.42
47592;BME280;33317;33.356;-117.184;2024-03-29T11:51:08;99158.88;;;21.60;35.59
47592;BME280;33317;33.356;-117.184;2024-03-29T11:53:36;99160.19;;;21.16;36.14
47592;BME280;33317;33.356;-117.184;2024-03-29T11:56:05;99155.46;;;21.01;36.25
47592;BME280;33317;33.356;-117.184;2024-03-29T11:58:34;99152.37;;;21.22;36.25
47592;BME280;33317;33.356;-117.184;2024-03-29T12:01:03;99150.31;;;21.23;36.09
47592;BME280;33317;33.356;-117.184;2024-03-29T12:03:32;99154.37;;;21.30;36.56
47592;BME280;33317;33.356;-117.184;2024-03-29T12:06:00;99152.18;;;20.92;36.75
47592;BME280;33317;33.356;-117.184;2024-03-29T12:08:30;99157.18;;;20.75;37.01
47592;BME280;33317;33.356;-117.184;2024-03-29T12:10:59;99159.98;;;21.11;36.71
47592;BME280;33317;33.356;-117.184;2024-03-29T12:13:28;99162.49;;;20.85;36.49
47592;BME280;33317;33.356;-117.184;2024-03-29T12:15:57;99159.64;;;21.54;36.15
47592;BME280;33317;33.356;-117.184;2024-03-29T12:18:26;99157.33;;;21.27;35.84
47592;BME280;33317;33.356;-117.184;2024-03-29T12:20:55;99153.85;;;21.22;35.81
47592;BME280;33317;33.356;-117.184;2024-03-29T12:23:23;99147.85;;;21.15;36.29
47592;BME280;33317;33.356;-117.184;2024-03-29T12:25:54;99137.62;;;21.04;35.90
47592;BME280;33317;33.356;-117.184;2024-03-29T12:28:23;99141.64;;;21.44;35.49
47592;BME280;33317;33.356;-117.184;2024-03-29T12:30:52;99143.76;;;21.44;35.48
47592;BME280;33317;33.356;-117.184;2024-03-29T12:33:22;99142.35;;;21.60;35.13
47592;BME280;33317;33.356;-117.184;2024-03-29T12:35:52;99147.65;;;21.75;35.32
47592;BME280;33317;33.356;-117.184;2024-03-29T12:38:22;99149.32;;;22.27;34.88